createdAt,value
2019-03-01T00:01:28.405Z,97260.13
2019-03-01T00:03:30.012Z,97258.76
2019-03-01T00:05:31.619Z,97256.59
2019-03-01T00:07:33.268Z,97256.25
2019-03-01T00:09:34.866Z,97258.02
2019-03-01T00:11:36.511Z,97257.23
2019-03-01T00:13:38.147Z,97253.09
2019-03-01T00:15:39.745Z,97256.16
2019-03-01T00:17:41.347Z,97251.29
2019-03-01T00:19:42.976Z,97251.67
2019-03-01T00:21:44.588Z,97250.09
2019-03-01T00:23:46.201Z,97253.10
2019-03-01T00:25:47.849Z,97248.04
2019-03-01T00:27:49.455Z,97246.25
2019-03-01T00:29:51.053Z,97247.09
2019-03-01T00:31:52.660Z,97242.39
2019-03-01T00:33:54.297Z,97241.80
2019-03-01T00:35:55.889Z,97240.97
2019-03-01T00:37:57.489Z,97235.85
2019-03-01T00:39:59.124Z,97238.81
2019-03-01T00:42:00.736Z,97234.44
2019-03-01T00:44:02.375Z,97238.88
2019-03-01T00:46:03.986Z,97235.91
2019-03-01T00:48:05.587Z,97227.39
2019-03-01T00:50:07.189Z,97229.55
2019-03-01T00:52:08.796Z,97230.50
2019-03-01T00:54:10.421Z,97231.06
2019-03-01T00:56:12.020Z,97229.97
2019-03-01T00:58:13.623Z,97235.19
2019-03-01T01:00:15.218Z,97231.41
2019-03-01T01:02:16.836Z,97228.38
2019-03-01T01:04:18.452Z,97228.02
2019-03-01T01:06:20.049Z,97222.06
2019-03-01T01:08:21.674Z,97214.83
2019-03-01T01:10:23.285Z,97217.79
2019-03-01T01:12:24.892Z,97216.44
2019-03-01T01:14:26.533Z,97211.32
2019-03-01T01:16:28.121Z,97213.42
2019-03-01T01:18:29.752Z,97215.11
2019-03-01T01:20:31.359Z,97213.44
2019-03-01T01:22:32.952Z,97211.00
2019-03-01T01:24:34.564Z,97200.44
2019-03-01T01:26:36.172Z,97204.66
2019-03-01T01:28:37.809Z,97212.33
2019-03-01T01:30:39.406Z,97209.35
2019-03-01T01:32:41.016Z,97208.02
2019-03-01T01:34:42.614Z,97200.67
2019-03-01T01:36:44.227Z,97200.77
2019-03-01T01:38:45.811Z,97202.47
2019-03-01T01:40:47.402Z,97196.97
2019-03-01T01:42:49.507Z,97194.38
2019-03-01T01:44:51.138Z,97196.82
2019-03-01T01:46:52.752Z,97185.66
2019-03-01T01:48:54.353Z,97187.68
2019-03-01T01:50:55.995Z,97179.98
2019-03-01T01:52:57.593Z,97172.73
2019-03-01T01:54:59.190Z,97168.92
2019-03-01T01:57:01.520Z,97171.02
2019-03-01T01:59:03.157Z,97167.59
2019-03-01T02:01:04.794Z,97165.14
2019-03-01T02:03:06.407Z,97158.37
2019-03-01T02:05:08.034Z,97155.79
2019-03-01T02:07:09.649Z,97154.11
2019-03-01T02:09:11.264Z,97155.89
2019-03-01T02:11:12.895Z,97153.79
2019-03-01T02:13:14.507Z,97156.33
2019-03-01T02:15:16.101Z,97159.77
2019-03-01T02:17:17.699Z,97156.77
2019-03-01T02:19:19.326Z,97163.16
2019-03-01T02:21:20.926Z,97154.23
2019-03-01T02:23:22.564Z,97153.05
2019-03-01T02:25:24.171Z,97149.28
2019-03-01T02:27:25.824Z,97152.65
2019-03-01T02:29:27.411Z,97153.93
2019-03-01T02:31:29.022Z,97151.81
2019-03-01T02:33:30.665Z,97148.31
2019-03-01T02:35:32.266Z,97145.27
2019-03-01T02:37:33.862Z,97148.58
2019-03-01T02:39:35.463Z,97153.25
2019-03-01T02:41:37.070Z,97148.95
2019-03-01T02:43:38.703Z,97152.39
2019-03-01T02:45:40.309Z,97145.98
2019-03-01T02:47:41.923Z,97144.72
2019-03-01T02:49:43.536Z,97144.69
2019-03-01T02:51:45.148Z,97150.19
2019-03-01T02:53:46.790Z,97148.67
2019-03-01T02:55:48.417Z,97143.36
2019-03-01T02:57:50.073Z,97142.76
2019-03-01T02:59:51.654Z,97139.98
2019-03-01T03:01:53.260Z,97139.69
2019-03-01T03:03:54.874Z,97125.89
2019-03-01T03:06:15.232Z,97140.72
2019-03-01T03:08:16.830Z,97094.65
2019-03-01T03:10:18.437Z,97130.28
2019-03-01T03:12:20.071Z,97133.66
2019-03-01T03:14:21.665Z,97123.33
2019-03-01T03:16:23.294Z,97129.70
2019-03-01T03:18:24.896Z,97132.26
2019-03-01T03:20:26.491Z,97135.67
2019-03-01T03:22:28.106Z,97139.64
2019-03-01T03:24:29.712Z,97138.80
2019-03-01T03:26:31.331Z,97143.10
2019-03-01T03:28:32.948Z,97145.20
2019-03-01T03:30:34.575Z,97144.52
2019-03-01T03:32:36.192Z,97141.36
2019-03-01T03:34:37.808Z,97142.22
2019-03-01T03:36:39.459Z,97141.60
2019-03-01T03:38:41.057Z,97134.57
2019-03-01T03:40:42.656Z,97134.27
2019-03-01T03:42:44.253Z,97137.79
2019-03-01T03:44:45.850Z,97126.50
2019-03-01T03:46:47.488Z,97133.95
2019-03-01T03:48:49.092Z,97133.30
2019-03-01T03:50:50.676Z,97133.73
2019-03-01T03:52:52.294Z,97131.10
2019-03-01T03:54:54.021Z,97126.67
2019-03-01T03:56:55.613Z,97119.75
2019-03-01T03:58:57.212Z,97124.36
2019-03-01T04:00:58.840Z,97133.84
2019-03-01T04:03:00.474Z,97132.89
2019-03-01T04:05:02.126Z,97133.80
2019-03-01T04:07:03.736Z,97135.17
2019-03-01T04:09:05.326Z,97129.69
2019-03-01T04:11:06.950Z,97106.84
2019-03-01T04:13:08.550Z,97136.51
2019-03-01T04:15:10.177Z,97129.77
2019-03-01T04:17:11.786Z,97121.59
2019-03-01T04:19:13.420Z,97156.42
2019-03-01T04:21:15.037Z,97119.34
2019-03-01T04:23:16.635Z,97124.34
2019-03-01T04:25:18.246Z,97116.28
2019-03-01T04:27:19.837Z,97111.31
2019-03-01T04:29:21.445Z,97104.95
2019-03-01T04:31:23.042Z,97107.13
2019-03-01T04:33:24.674Z,97106.78
2019-03-01T04:35:26.257Z,97101.73
2019-03-01T04:37:27.883Z,97113.26
2019-03-01T04:39:29.498Z,97107.38
2019-03-01T04:41:31.097Z,97104.43
2019-03-01T04:43:32.722Z,97111.75
2019-03-01T04:45:34.317Z,97115.62
2019-03-01T04:47:35.937Z,97112.23
2019-03-01T04:49:37.538Z,97107.61
2019-03-01T04:51:40.306Z,97114.97
2019-03-01T04:53:40.910Z,97109.44
2019-03-01T04:55:42.509Z,97109.53
2019-03-01T04:57:44.105Z,97109.60
2019-03-01T04:59:45.716Z,97104.59
2019-03-01T05:01:47.341Z,97105.48
2019-03-01T05:03:48.940Z,97098.31
2019-03-01T05:05:50.566Z,97099.63
2019-03-01T05:07:52.217Z,97100.58
2019-03-01T05:09:55.585Z,97094.80
2019-03-01T05:11:55.482Z,97096.20
2019-03-01T05:13:57.109Z,97097.13
2019-03-01T05:15:58.702Z,97076.89
2019-03-01T05:18:00.283Z,97096.92
2019-03-01T05:20:01.879Z,97093.28
2019-03-01T05:22:03.491Z,97088.42
2019-03-01T05:24:05.119Z,97090.25
2019-03-01T05:26:06.717Z,97084.33
2019-03-01T05:28:08.314Z,97092.38
2019-03-01T05:30:09.921Z,97090.69
2019-03-01T05:32:11.529Z,97086.42
2019-03-01T05:34:13.180Z,97085.12
2019-03-01T05:36:14.774Z,97077.39
2019-03-01T05:38:21.771Z,97078.58
2019-03-01T05:40:18.071Z,97081.86
2019-03-01T05:42:19.666Z,97078.36
2019-03-01T05:44:21.262Z,97079.89
2019-03-01T05:46:22.889Z,97072.43
2019-03-01T05:48:24.486Z,97072.27
2019-03-01T05:50:26.125Z,97070.84
2019-03-01T05:52:27.732Z,97069.70
2019-03-01T05:54:29.329Z,97066.10
2019-03-01T05:56:30.964Z,97066.75
2019-03-01T05:58:32.559Z,97059.83
2019-03-01T06:00:34.196Z,97062.62
2019-03-01T06:02:35.794Z,97064.16
2019-03-01T06:04:37.394Z,97068.77
2019-03-01T06:06:39.018Z,97067.48
2019-03-01T06:08:40.628Z,97072.14
2019-03-01T06:10:42.221Z,97079.91
2019-03-01T06:12:43.817Z,97073.09
2019-03-01T06:14:45.419Z,97068.47
2019-03-01T06:16:47.050Z,97075.38
2019-03-01T06:18:48.683Z,97074.20
2019-03-01T06:20:50.292Z,97071.33
2019-03-01T06:22:51.914Z,97070.14
2019-03-01T06:24:53.509Z,97066.84
2019-03-01T06:26:55.096Z,97072.91
2019-03-01T06:28:56.727Z,97065.31
2019-03-01T06:30:58.326Z,97067.98
2019-03-01T06:32:59.923Z,97070.16
2019-03-01T06:35:01.554Z,97068.19
2019-03-01T06:37:03.149Z,97062.34
2019-03-01T06:39:24.454Z,97064.98
2019-03-01T06:41:26.086Z,97061.27
2019-03-01T06:43:27.669Z,97068.09
2019-03-01T06:45:29.294Z,97064.28
2019-03-01T06:47:30.904Z,97063.55
2019-03-01T06:49:38.146Z,97061.58
2019-03-01T06:51:39.747Z,97061.59
2019-03-01T06:53:41.351Z,97068.44
2019-03-01T06:55:42.987Z,97070.52
2019-03-01T06:57:44.600Z,97073.56
2019-03-01T06:59:46.198Z,97068.15
2019-03-01T07:01:47.800Z,97069.84
2019-03-01T07:03:49.406Z,97068.61
2019-03-01T07:05:51.002Z,97068.24
2019-03-01T07:07:52.640Z,97068.75
2019-03-01T07:09:54.234Z,97070.81
2019-03-01T07:11:55.862Z,97072.05
2019-03-01T07:13:57.465Z,97072.80
2019-03-01T07:15:59.066Z,97074.44
2019-03-01T07:18:00.703Z,97073.08
2019-03-01T07:20:02.298Z,97075.98
2019-03-01T07:22:03.889Z,97063.95
2019-03-01T07:24:05.619Z,97066.39
2019-03-01T07:26:07.169Z,97063.30
2019-03-01T07:28:08.817Z,97067.37
2019-03-01T07:30:10.508Z,97055.86
2019-03-01T07:32:12.182Z,97069.68
2019-03-01T07:34:13.782Z,97067.05
2019-03-01T07:36:15.382Z,97070.42
2019-03-01T07:38:16.967Z,97068.66
2019-03-01T07:40:18.560Z,97066.50
2019-03-01T07:42:20.218Z,97066.54
2019-03-01T07:44:21.825Z,97065.68
2019-03-01T07:46:23.421Z,97065.80
2019-03-01T07:48:25.055Z,97062.03
2019-03-01T07:50:26.654Z,97062.98
2019-03-01T07:52:28.291Z,97068.98
2019-03-01T07:54:29.953Z,96929.26
2019-03-01T07:56:31.561Z,97065.31
2019-03-01T07:58:33.168Z,97061.61
2019-03-01T08:00:34.798Z,97068.00
2019-03-01T08:02:39.724Z,97068.06
2019-03-01T08:04:38.030Z,97066.85
2019-03-01T08:06:39.640Z,97067.37
2019-03-01T08:08:41.256Z,97062.33
2019-03-01T08:10:42.858Z,97061.52
2019-03-01T08:12:44.470Z,97067.55
2019-03-01T08:14:46.102Z,97064.63
2019-03-01T08:16:47.698Z,97071.91
2019-03-01T08:18:49.298Z,97058.47
2019-03-01T08:20:50.899Z,97063.92
2019-03-01T08:22:52.499Z,97059.67
2019-03-01T08:24:54.134Z,97061.02
2019-03-01T08:26:57.124Z,97057.68
2019-03-01T08:28:58.366Z,97058.12
2019-03-01T08:30:59.177Z,97067.00
2019-03-01T08:33:02.588Z,97064.06
2019-03-01T08:35:02.434Z,97061.55
2019-03-01T08:37:04.044Z,97064.92
2019-03-01T08:39:05.885Z,97063.13
2019-03-01T08:41:07.325Z,97074.55
2019-03-01T08:43:13.009Z,97071.14
2019-03-01T08:45:10.632Z,97071.98
2019-03-01T08:47:12.226Z,97065.58
2019-03-01T08:49:13.856Z,97028.96
2019-03-01T08:51:15.472Z,97067.16
2019-03-01T08:53:17.065Z,97062.44
2019-03-01T08:55:18.679Z,97065.31
2019-03-01T08:57:22.575Z,97058.84
2019-03-01T08:59:21.953Z,97060.09
2019-03-01T09:01:23.565Z,97065.11
2019-03-01T09:03:25.170Z,97060.86
2019-03-01T09:05:26.794Z,97059.13
2019-03-01T09:07:30.210Z,97060.77
2019-03-01T09:09:30.055Z,97053.53
2019-03-01T09:11:31.650Z,97056.91
2019-03-01T09:13:33.252Z,97050.05
2019-03-01T09:15:36.772Z,97054.30
2019-03-01T09:17:36.572Z,97047.96
2019-03-01T09:19:38.171Z,97052.25
2019-03-01T09:21:39.765Z,97051.00
2019-03-01T09:23:41.373Z,97049.72
2019-03-01T09:25:44.548Z,97044.66
2019-03-01T09:27:44.700Z,97046.91
2019-03-01T09:29:46.310Z,97047.35
2019-03-01T09:31:47.896Z,97040.12
2019-03-01T09:33:49.503Z,97030.83
2019-03-01T09:35:55.659Z,97037.16
2019-03-01T09:37:57.304Z,97038.02
2019-03-01T09:40:05.579Z,97032.22
2019-03-01T09:42:04.364Z,97040.73
2019-03-01T09:44:03.095Z,97040.79
2019-03-01T09:46:03.891Z,97044.98
2019-03-01T09:48:08.612Z,97043.78
2019-03-01T09:50:07.145Z,97041.23
2019-03-01T09:52:08.756Z,97040.38
2019-03-01T09:54:10.366Z,97043.87
2019-03-01T09:56:12.921Z,97034.54
2019-03-01T09:58:13.635Z,97037.58
2019-03-01T10:00:15.289Z,97033.36
2019-03-01T10:02:16.890Z,97039.72
2019-03-01T10:04:18.510Z,97038.46
2019-03-01T10:06:20.120Z,97035.93
2019-03-01T10:08:21.746Z,97037.64
2019-03-01T10:10:23.331Z,97038.48
2019-03-01T10:12:24.926Z,97040.99
2019-03-01T10:14:26.522Z,97037.94
2019-03-01T10:16:28.132Z,97034.08
2019-03-01T10:18:29.758Z,97030.18
2019-03-01T10:20:31.350Z,97025.49
2019-03-01T10:22:32.945Z,97030.54
2019-03-01T10:24:34.528Z,97029.68
2019-03-01T10:26:36.136Z,97022.50
2019-03-01T10:28:37.743Z,97025.76
2019-03-01T10:30:39.354Z,97028.22
2019-03-01T10:32:40.973Z,97031.24
2019-03-01T10:34:42.552Z,97034.60
2019-03-01T10:36:44.136Z,97031.19
2019-03-01T10:38:45.744Z,97031.57
2019-03-01T10:40:47.338Z,97029.02
2019-03-01T10:42:48.956Z,97027.25
2019-03-01T10:44:50.550Z,97034.48
2019-03-01T10:46:52.141Z,97040.51
2019-03-01T10:48:53.756Z,97039.65
2019-03-01T10:50:55.358Z,97045.20
2019-03-01T10:52:57.049Z,97042.24
2019-03-01T10:54:58.724Z,97041.41
2019-03-01T10:57:00.312Z,97041.04
2019-03-01T10:59:01.904Z,97041.89
2019-03-01T11:01:03.509Z,97036.39
2019-03-01T11:03:05.143Z,97031.70
2019-03-01T11:05:06.742Z,97034.33
2019-03-01T11:07:08.425Z,97031.36
2019-03-01T11:09:10.034Z,97028.81
2019-03-01T11:11:11.634Z,97030.95
2019-03-01T11:13:13.262Z,97030.67
2019-03-01T11:15:14.857Z,97032.73
2019-03-01T11:17:16.464Z,97037.40
2019-03-01T11:19:18.076Z,97036.16
2019-03-01T11:21:19.688Z,97031.53
2019-03-01T11:23:21.301Z,97037.52
2019-03-01T11:25:22.911Z,97037.11
2019-03-01T11:27:24.515Z,97029.09
2019-03-01T11:29:26.142Z,97032.16
2019-03-01T11:31:27.742Z,97036.34
2019-03-01T11:33:29.347Z,97030.82
2019-03-01T11:35:30.974Z,97030.82
2019-03-01T11:37:32.570Z,97034.70
2019-03-01T11:39:34.207Z,97029.59
2019-03-01T11:41:35.806Z,97028.69
2019-03-01T11:43:37.421Z,97032.09
2019-03-01T11:45:39.027Z,97032.52
2019-03-01T11:47:40.623Z,97029.11
2019-03-01T11:49:42.228Z,97032.08
2019-03-01T11:51:43.844Z,97022.00
2019-03-01T11:53:45.451Z,97026.90
2019-03-01T11:55:47.069Z,97050.72
2019-03-01T11:57:48.712Z,97023.56
2019-03-01T11:59:50.306Z,97031.53
2019-03-01T12:01:51.946Z,97032.30
2019-03-01T12:03:53.559Z,97034.36
2019-03-01T12:05:55.158Z,97032.22
2019-03-01T12:07:56.759Z,97034.34
2019-03-01T12:09:58.386Z,97030.88
2019-03-01T12:12:00.020Z,97026.59
2019-03-01T12:14:01.651Z,97032.54
2019-03-01T12:16:03.252Z,97031.24
2019-03-01T12:18:04.861Z,97029.49
2019-03-01T12:20:06.480Z,97027.85
2019-03-01T12:22:16.762Z,97023.16
2019-03-01T12:24:09.753Z,97030.41
2019-03-01T12:26:11.346Z,97001.14
2019-03-01T12:28:12.932Z,97024.06
2019-03-01T12:30:14.572Z,97021.60
2019-03-01T12:32:16.172Z,97024.48
2019-03-01T12:34:17.806Z,97024.06
2019-03-01T12:36:19.407Z,97011.87
2019-03-01T12:38:21.032Z,97019.45
2019-03-01T12:40:22.633Z,97022.88
2019-03-01T12:42:24.229Z,97025.41
2019-03-01T12:44:25.863Z,97018.17
2019-03-01T12:46:27.461Z,97022.50
2019-03-01T12:48:29.058Z,97025.49
2019-03-01T12:50:30.653Z,97024.28
2019-03-01T12:52:32.268Z,97016.58
2019-03-01T12:54:33.913Z,97027.20
2019-03-01T12:56:35.515Z,97024.72
2019-03-01T12:58:37.119Z,97032.83
2019-03-01T13:00:38.748Z,97024.34
2019-03-01T13:02:40.347Z,97026.97
2019-03-01T13:04:41.952Z,97026.13
2019-03-01T13:06:43.555Z,97025.34
2019-03-01T13:08:47.715Z,97029.59
2019-03-01T13:10:46.823Z,97022.80
2019-03-01T13:12:48.457Z,97024.52
2019-03-01T13:14:50.064Z,97027.06
2019-03-01T13:16:51.661Z,97022.81
2019-03-01T13:18:53.254Z,97035.14
2019-03-01T13:20:54.849Z,97027.91
2019-03-01T13:22:56.490Z,97015.94
2019-03-01T13:24:58.086Z,97014.75
2019-03-01T13:26:59.727Z,97019.77
2019-03-01T13:29:01.324Z,97017.22
2019-03-01T13:31:02.932Z,97015.06
2019-03-01T13:33:04.585Z,97022.28
2019-03-01T13:35:06.200Z,97023.48
2019-03-01T13:37:07.798Z,97025.60
2019-03-01T13:39:10.465Z,97031.13
2019-03-01T13:41:12.585Z,97029.39
2019-03-01T13:43:14.544Z,97036.14
2019-03-01T13:45:16.156Z,97031.97
2019-03-01T13:47:17.753Z,97050.63
2019-03-01T13:49:19.370Z,97059.55
2019-03-01T13:51:20.967Z,97070.16
2019-03-01T13:53:22.552Z,97073.17
2019-03-01T13:55:24.149Z,97064.65
2019-03-01T13:57:25.742Z,97069.31
2019-03-01T13:59:27.378Z,97072.73
2019-03-01T14:01:28.990Z,97071.88
2019-03-01T14:03:30.576Z,97073.13
2019-03-01T14:05:32.183Z,97068.04
2019-03-01T14:07:33.763Z,97070.16
2019-03-01T14:09:35.366Z,97065.94
2019-03-01T14:11:36.976Z,97073.17
2019-03-01T14:13:38.617Z,97076.58
2019-03-01T14:15:40.214Z,97078.71
2019-03-01T14:17:41.809Z,97076.91
2019-03-01T14:19:43.462Z,97077.98
2019-03-01T14:21:45.057Z,97075.85
2019-03-01T14:23:46.664Z,97074.87
2019-03-01T14:25:48.271Z,97070.92
2019-03-01T14:27:49.887Z,97073.91
2019-03-01T14:29:53.668Z,97081.73
2019-03-01T14:31:53.195Z,97079.55
2019-03-01T14:33:54.790Z,97083.84
2019-03-01T14:35:59.156Z,97084.19
2019-03-01T14:37:58.068Z,97081.05
2019-03-01T14:39:59.670Z,97084.54
2019-03-01T14:42:01.266Z,97091.03
2019-03-01T14:44:02.871Z,97092.52
2019-03-01T14:46:04.456Z,97092.47
2019-03-01T14:48:08.692Z,97089.83
2019-03-01T14:50:08.547Z,97093.89
2019-03-01T14:52:10.154Z,97095.20
2019-03-01T14:54:11.792Z,97099.83
2019-03-01T14:56:13.404Z,97099.86
2019-03-01T14:58:15.056Z,97096.46
2019-03-01T15:00:16.654Z,97102.00
2019-03-01T15:02:18.247Z,97103.59
2019-03-01T15:04:19.842Z,97095.04
2019-03-01T15:06:21.448Z,97099.52
2019-03-01T15:08:23.028Z,97103.59
2019-03-01T15:10:24.671Z,97101.66
2019-03-01T15:12:26.278Z,97097.98
2019-03-01T15:14:27.879Z,97103.01
2019-03-01T15:16:29.532Z,97066.27
2019-03-01T15:18:32.369Z,97105.36
2019-03-01T15:20:32.790Z,97109.73
2019-03-01T15:22:34.387Z,97111.43
2019-03-01T15:24:36.282Z,97109.52
2019-03-01T15:26:37.726Z,97116.81
2019-03-01T15:28:39.322Z,97116.52
2019-03-01T15:30:42.576Z,97121.39
2019-03-01T15:32:42.622Z,97114.44
2019-03-01T15:34:44.208Z,97120.81
2019-03-01T15:36:45.802Z,97116.77
2019-03-01T15:38:47.422Z,97121.17
2019-03-01T15:40:49.034Z,97122.15
2019-03-01T15:42:51.525Z,97122.70
2019-03-01T15:44:52.349Z,97132.70
2019-03-01T15:46:53.935Z,97134.48
2019-03-01T15:48:55.542Z,97135.73
2019-03-01T15:50:59.023Z,97142.89
2019-03-01T15:52:58.816Z,97141.81
2019-03-01T15:55:00.414Z,97153.66
2019-03-01T15:57:02.025Z,97159.31
2019-03-01T15:59:06.066Z,97140.17
2019-03-01T16:01:05.469Z,97165.64
2019-03-01T16:03:06.987Z,97162.83
2019-03-01T16:05:08.585Z,97169.42
2019-03-01T16:07:10.206Z,97174.43
2019-03-01T16:09:11.812Z,97173.29
2019-03-01T16:11:13.612Z,97175.10
2019-03-01T16:13:15.124Z,97179.53
2019-03-01T16:15:16.727Z,97190.10
2019-03-01T16:17:18.342Z,97199.84
2019-03-01T16:19:19.958Z,97195.22
2019-03-01T16:21:21.571Z,97203.34
2019-03-01T16:23:23.229Z,97196.16
2019-03-01T16:25:24.840Z,97201.38
2019-03-01T16:27:26.488Z,97207.38
2019-03-01T16:29:28.080Z,97208.66
2019-03-01T16:31:32.938Z,97214.84
2019-03-01T16:33:34.171Z,97178.84
2019-03-01T16:35:35.779Z,97216.06
2019-03-01T16:37:37.809Z,97207.33
2019-03-01T16:39:39.764Z,97226.18
2019-03-01T16:41:42.798Z,97226.01
2019-03-01T16:43:43.083Z,97227.91
2019-03-01T16:45:44.710Z,97227.89
2019-03-01T16:47:46.320Z,97235.47
2019-03-01T16:49:47.937Z,97236.67
2019-03-01T16:51:50.626Z,97239.23
2019-03-01T16:53:52.180Z,97238.23
2019-03-01T16:55:55.840Z,97245.39
2019-03-01T16:58:06.181Z,97244.14
2019-03-01T16:59:59.407Z,97240.73
2019-03-01T17:02:06.339Z,97239.73
2019-03-01T17:04:02.761Z,97251.81
2019-03-01T17:06:04.380Z,97252.45
2019-03-01T17:08:06.175Z,97252.97
2019-03-01T17:10:07.661Z,97258.12
2019-03-01T17:12:09.281Z,97258.73
2019-03-01T17:14:10.901Z,97257.94
2019-03-01T17:16:12.558Z,97262.49
2019-03-01T17:18:14.200Z,97268.06
2019-03-01T17:20:15.815Z,97233.39
2019-03-01T17:22:17.419Z,97275.80
2019-03-01T17:24:19.018Z,97273.86
2019-03-01T17:26:20.623Z,97273.41
2019-03-01T17:28:24.269Z,97283.12
2019-03-01T17:30:23.940Z,97280.01
2019-03-01T17:32:25.662Z,97285.17
2019-03-01T17:34:29.315Z,97286.29
2019-03-01T17:36:28.955Z,97296.16
2019-03-01T17:38:30.624Z,97294.22
2019-03-01T17:40:32.664Z,97293.59
2019-03-01T17:42:33.876Z,97304.11
2019-03-01T17:44:35.463Z,97304.67
2019-03-01T17:46:37.052Z,97307.09
2019-03-01T17:48:38.648Z,97308.96
2019-03-01T17:50:41.697Z,97316.36
2019-03-01T17:52:43.824Z,97321.95
2019-03-01T17:54:43.664Z,97326.30
2019-03-01T17:56:45.418Z,97307.86
2019-03-01T17:58:47.093Z,97334.09
2019-03-01T18:00:48.744Z,97337.14
2019-03-01T18:02:52.118Z,97261.53
2019-03-01T18:04:51.997Z,97347.52
2019-03-01T18:06:53.602Z,97341.23
2019-03-01T18:08:55.212Z,97342.29
2019-03-01T18:10:56.846Z,97339.59
2019-03-01T18:12:58.451Z,97351.75
2019-03-01T18:15:00.096Z,97351.00
2019-03-01T18:17:01.734Z,97347.09
2019-03-01T18:19:03.335Z,97342.70
2019-03-01T18:21:05.436Z,97350.83
2019-03-01T18:23:07.047Z,97354.13
2019-03-01T18:25:08.668Z,97344.77
2019-03-01T18:27:12.299Z,97359.21
2019-03-01T18:29:11.916Z,97367.14
2019-03-01T18:31:13.572Z,97366.51
2019-03-01T18:33:16.852Z,97368.36
2019-03-01T18:35:16.838Z,97367.24
2019-03-01T18:37:19.817Z,97382.77
2019-03-01T18:39:20.098Z,97376.33
2019-03-01T18:41:24.136Z,97379.45
2019-03-01T18:43:24.005Z,97383.97
2019-03-01T18:45:25.616Z,97386.79
2019-03-01T18:47:27.893Z,97384.43
2019-03-01T18:49:28.873Z,97385.70
2019-03-01T18:51:30.475Z,97394.55
2019-03-01T18:53:32.117Z,97401.37
2019-03-01T18:55:33.727Z,97396.48
2019-03-01T18:57:35.406Z,97404.05
2019-03-01T18:59:36.993Z,97397.84
2019-03-01T19:01:38.619Z,97405.48
2019-03-01T19:03:41.227Z,97411.42
2019-03-01T19:05:41.908Z,97407.45
2019-03-01T19:07:43.553Z,97412.74
2019-03-01T19:09:45.210Z,97395.48
2019-03-01T19:11:46.821Z,97422.40
2019-03-01T19:13:48.460Z,97429.25
2019-03-01T19:15:54.325Z,97429.75
2019-03-01T19:17:51.751Z,97432.22
2019-03-01T19:19:53.349Z,97437.46
2019-03-01T19:21:54.961Z,97434.91
2019-03-01T19:23:56.568Z,97443.21
2019-03-01T19:26:01.640Z,97442.48
2019-03-01T19:27:59.850Z,97440.51
2019-03-01T19:30:01.506Z,97446.73
2019-03-01T19:32:03.113Z,97450.80
2019-03-01T19:34:04.725Z,97450.03
2019-03-01T19:36:06.408Z,97453.23
2019-03-01T19:38:08.028Z,97460.19
2019-03-01T19:40:10.869Z,97462.75
2019-03-01T19:42:11.340Z,97463.02
2019-03-01T19:44:13.798Z,97464.16
2019-03-01T19:46:15.648Z,97469.23
2019-03-01T19:48:17.082Z,97469.01
2019-03-01T19:50:21.709Z,97468.86
2019-03-01T19:52:20.359Z,97469.13
2019-03-01T19:54:21.990Z,97470.79
2019-03-01T19:56:25.873Z,97468.97
2019-03-01T19:58:25.376Z,97470.91
2019-03-01T20:00:27.002Z,97474.50
2019-03-01T20:02:31.026Z,97478.45
2019-03-01T20:04:30.604Z,97474.15
2019-03-01T20:06:32.222Z,97476.63
2019-03-01T20:08:33.897Z,97472.82
2019-03-01T20:10:36.899Z,97475.43
2019-03-01T20:12:40.498Z,97471.66
2019-03-01T20:14:39.316Z,97477.71
2019-03-01T20:16:40.982Z,97489.16
2019-03-01T20:18:45.020Z,97489.20
2019-03-01T20:20:44.217Z,97490.04
2019-03-01T20:22:45.813Z,97488.17
2019-03-01T20:24:47.406Z,97491.75
2019-03-01T20:26:49.121Z,97504.41
2019-03-01T20:28:51.361Z,97502.20
2019-03-01T20:30:52.579Z,97497.09
2019-03-01T20:32:55.050Z,97501.19
2019-03-01T20:34:56.640Z,97506.64
2019-03-01T20:36:58.250Z,97501.52
2019-03-01T20:38:59.855Z,97506.91
2019-03-01T20:41:03.186Z,97509.88
2019-03-01T20:43:06.909Z,97514.08
2019-03-01T20:45:04.805Z,97518.48
2019-03-01T20:47:06.447Z,97524.17
2019-03-01T20:49:08.064Z,97526.28
2019-03-01T20:51:09.686Z,97525.16
2019-03-01T20:53:13.279Z,97528.09
2019-03-01T20:55:13.104Z,97527.30
2019-03-01T20:57:14.723Z,97525.80
2019-03-01T20:59:16.368Z,97539.77
2019-03-01T21:01:17.979Z,97536.01
2019-03-01T21:03:19.631Z,97537.36
2019-03-01T21:05:21.251Z,97538.03
2019-03-01T21:07:22.881Z,97539.97
2019-03-01T21:09:24.581Z,97546.19
2019-03-01T21:11:26.535Z,97551.58
2019-03-01T21:13:28.060Z,97546.27
2019-03-01T21:15:29.730Z,97547.03
2019-03-01T21:17:31.316Z,97543.91
2019-03-01T21:19:32.913Z,97546.45
2019-03-01T21:21:34.557Z,97545.44
2019-03-01T21:23:36.167Z,97552.29
2019-03-01T21:25:39.791Z,97548.71
2019-03-01T21:27:39.440Z,97548.39
2019-03-01T21:29:41.064Z,97549.33
2019-03-01T21:31:42.669Z,97550.19
2019-03-01T21:33:44.280Z,97557.91
2019-03-01T21:35:47.848Z,97558.55
2019-03-01T21:37:47.624Z,97561.63
2019-03-01T21:39:49.239Z,97561.65
2019-03-01T21:41:51.392Z,97558.66
2019-03-01T21:43:52.510Z,97557.27
2019-03-01T21:45:55.598Z,97565.03
2019-03-01T21:47:55.886Z,97566.41
2019-03-01T21:49:59.937Z,97570.93
2019-03-01T21:51:59.300Z,97570.42
2019-03-01T21:54:01.032Z,97570.49
2019-03-01T21:56:04.628Z,97574.66
2019-03-01T21:58:06.516Z,97574.69
2019-03-01T22:00:05.975Z,97570.80
2019-03-01T22:02:07.587Z,97584.11
2019-03-01T22:04:09.586Z,97585.98
2019-03-01T22:06:11.206Z,97588.61
2019-03-01T22:08:13.149Z,97594.33
2019-03-01T22:10:14.491Z,97590.33
2019-03-01T22:12:16.099Z,97593.42
2019-03-01T22:14:17.716Z,97597.39
2019-03-01T22:16:19.376Z,97591.53
2019-03-01T22:18:23.745Z,97595.48
2019-03-01T22:20:22.654Z,97597.19
2019-03-01T22:22:24.295Z,97589.62
2019-03-01T22:24:26.482Z,97598.53
2019-03-01T22:26:28.231Z,97599.63
2019-03-01T22:28:32.782Z,97602.17
2019-03-01T22:30:31.526Z,97599.19
2019-03-01T22:32:33.140Z,97600.43
2019-03-01T22:34:34.738Z,97572.84
2019-03-01T22:36:36.557Z,97607.83
2019-03-01T22:38:41.399Z,97601.13
2019-03-01T22:40:39.814Z,97601.25
2019-03-01T22:42:41.418Z,97613.45
2019-03-01T22:44:43.788Z,97604.84
2019-03-01T22:46:44.693Z,97606.37
2019-03-01T22:48:48.939Z,97612.56
2019-03-01T22:50:47.987Z,97604.97
2019-03-01T22:52:49.603Z,97605.95
2019-03-01T22:54:51.302Z,97601.34
2019-03-01T22:56:52.926Z,97606.35
2019-03-01T22:58:54.555Z,97608.87
2019-03-01T23:01:04.180Z,97605.12
2019-03-01T23:03:05.792Z,97612.81
2019-03-01T23:05:07.399Z,97612.28
2019-03-01T23:07:09.011Z,97610.87
2019-03-01T23:09:11.531Z,97609.88
2019-03-01T23:11:12.304Z,97607.32
2019-03-01T23:13:16.911Z,97616.41
2019-03-01T23:15:15.571Z,97616.93
2019-03-01T23:17:17.196Z,97532.36
2019-03-01T23:19:18.805Z,97616.23
2019-03-01T23:21:20.401Z,97612.53
2019-03-01T23:23:23.918Z,97611.84
2019-03-01T23:25:23.673Z,97615.60
2019-03-01T23:27:28.410Z,97615.80
2019-03-01T23:29:26.914Z,97609.90
2019-03-01T23:31:28.506Z,97612.16
2019-03-01T23:33:31.666Z,97614.97
2019-03-01T23:35:31.796Z,97616.77
2019-03-01T23:37:35.646Z,97609.83
2019-03-01T23:39:35.047Z,97619.88
2019-03-01T23:41:36.711Z,97611.98
2019-03-01T23:43:38.324Z,97612.27
2019-03-01T23:45:39.969Z,97607.55
2019-03-01T23:47:41.566Z,97609.94
2019-03-01T23:49:43.179Z,97606.84